createdAt,value
2022-12-20T00:01:29.668Z,65.65
2022-12-20T00:03:59.652Z,65.30
2022-12-20T00:06:27.362Z,69.20
2022-12-20T00:08:57.348Z,69.13
2022-12-20T00:11:25.921Z,65.22
2022-12-20T00:13:53.740Z,69.03
2022-12-20T00:16:23.741Z,63.72
2022-12-20T00:18:56.598Z,63.70
2022-12-20T00:21:24.596Z,65.63
2022-12-20T00:23:52.750Z,62.65
2022-12-20T00:26:23.192Z,61.67
2022-12-20T00:28:51.592Z,68.45
2022-12-20T00:31:22.069Z,65.35
2022-12-20T00:33:51.498Z,64.47
2022-12-20T00:36:20.220Z,63.70
2022-12-20T00:38:50.005Z,63.92
2022-12-20T00:41:29.983Z,63.40
2022-12-20T00:43:57.952Z,67.25
2022-12-20T00:46:26.022Z,64.13
2022-12-20T00:48:54.886Z,56.85
2022-12-20T00:51:25.994Z,52.00
2022-12-20T00:53:54.560Z,60.25
2022-12-20T00:56:22.795Z,62.95
2022-12-20T00:58:50.473Z,55.60
2022-12-20T01:01:22.456Z,57.58
2022-12-20T01:03:50.809Z,58.95
2022-12-20T01:06:19.546Z,53.78
2022-12-20T01:08:47.456Z,52.67
2022-12-20T01:11:18.233Z,54.20
2022-12-20T01:13:48.571Z,51.45
2022-12-20T01:16:28.112Z,54.20
2022-12-20T01:18:56.479Z,57.30
2022-12-20T01:21:27.273Z,54.08
2022-12-20T01:23:55.556Z,56.42
2022-12-20T01:26:25.809Z,54.65
2022-12-20T01:28:56.643Z,59.38
2022-12-20T01:31:28.430Z,58.83
2022-12-20T01:33:56.620Z,62.75
2022-12-20T01:36:28.511Z,69.72
2022-12-20T01:38:59.314Z,62.15
2022-12-20T01:41:29.075Z,65.88
2022-12-20T01:43:59.555Z,64.05
2022-12-20T01:46:30.636Z,66.70
2022-12-20T01:49:20.201Z,64.45
2022-12-20T01:51:52.504Z,67.30
2022-12-20T01:54:26.586Z,70.43
2022-12-20T01:57:04.371Z,66.55
2022-12-20T01:59:35.630Z,75.93
2022-12-20T02:02:07.661Z,71.30
2022-12-20T02:04:36.453Z,78.03
2022-12-20T02:07:06.366Z,70.45
2022-12-20T02:09:36.165Z,79.28
2022-12-20T02:12:15.152Z,77.40
2022-12-20T02:15:05.723Z,89.22
2022-12-20T02:17:52.214Z,88.90
2022-12-20T02:20:51.643Z,85.10
2022-12-20T02:23:40.185Z,108.15
2022-12-20T02:26:07.779Z,97.80
2022-12-20T02:29:13.998Z,100.75
2022-12-20T02:31:52.062Z,105.82
2022-12-20T02:34:25.125Z,102.45
2022-12-20T02:36:53.278Z,105.35
2022-12-20T02:39:26.133Z,103.35
2022-12-20T02:41:58.728Z,92.35
2022-12-20T02:44:47.691Z,87.28
2022-12-20T02:47:24.275Z,90.72
2022-12-20T02:49:53.915Z,85.32
2022-12-20T02:52:26.842Z,90.55
2022-12-20T02:54:55.348Z,91.70
2022-12-20T02:57:29.762Z,100.38
2022-12-20T03:00:18.389Z,89.78
2022-12-20T03:03:06.897Z,101.70
2022-12-20T03:05:43.350Z,84.40
2022-12-20T03:08:12.041Z,91.07
2022-12-20T03:10:39.737Z,94.43
2022-12-20T03:13:07.571Z,84.88
2022-12-20T03:15:37.337Z,82.07
2022-12-20T03:18:05.176Z,88.20
2022-12-20T03:20:32.883Z,86.75
2022-12-20T03:23:00.602Z,87.10
2022-12-20T03:25:28.962Z,79.72
2022-12-20T03:27:57.886Z,86.40
2022-12-20T03:30:27.025Z,81.25
2022-12-20T03:32:54.625Z,85.60
2022-12-20T03:35:22.145Z,83.28
2022-12-20T03:37:49.895Z,79.35
2022-12-20T03:40:17.653Z,76.60
2022-12-20T03:42:45.736Z,77.40
2022-12-20T03:45:13.297Z,74.35
2022-12-20T03:47:41.015Z,77.45
2022-12-20T03:50:09.461Z,75.13
2022-12-20T03:52:38.479Z,78.68
2022-12-20T03:55:06.691Z,79.80
2022-12-20T03:57:40.678Z,72.30
2022-12-20T04:00:21.360Z,84.15
2022-12-20T04:02:53.012Z,74.00
2022-12-20T04:05:21.542Z,84.63
2022-12-20T04:07:49.065Z,80.22
2022-12-20T04:10:16.910Z,78.72
2022-12-20T04:12:44.546Z,83.03
2022-12-20T04:15:14.542Z,80.97
2022-12-20T04:17:44.206Z,83.32
2022-12-20T04:20:21.283Z,82.60
2022-12-20T04:22:56.796Z,80.78
2022-12-20T04:25:24.553Z,79.25
2022-12-20T04:27:55.480Z,79.90
2022-12-20T04:30:23.126Z,73.32
2022-12-20T04:32:54.817Z,81.20
2022-12-20T04:35:23.398Z,69.97
2022-12-20T04:37:51.109Z,70.70
2022-12-20T04:40:19.328Z,73.97
2022-12-20T04:42:49.691Z,73.70
2022-12-20T04:45:18.138Z,70.53
2022-12-20T04:47:46.520Z,70.80
2022-12-20T04:50:17.290Z,75.40
2022-12-20T04:53:04.063Z,79.05
2022-12-20T04:55:37.581Z,64.55
2022-12-20T04:58:07.817Z,70.57
2022-12-20T05:00:38.444Z,71.00
2022-12-20T05:03:22.756Z,72.32
2022-12-20T05:05:50.577Z,78.05
2022-12-20T05:08:18.547Z,73.25
2022-12-20T05:11:50.058Z,69.40
2022-12-20T05:14:17.706Z,74.05
2022-12-20T05:16:45.479Z,65.68
2022-12-20T05:19:12.985Z,70.97
2022-12-20T05:22:00.397Z,68.93
2022-12-20T05:24:46.391Z,70.82
2022-12-20T05:27:29.347Z,69.85
2022-12-20T05:29:57.502Z,71.65
2022-12-20T05:32:26.007Z,69.68
2022-12-20T05:34:54.969Z,69.63
2022-12-20T05:37:22.918Z,71.20
2022-12-20T05:39:51.060Z,69.20
2022-12-20T05:42:22.306Z,79.40
2022-12-20T05:44:52.715Z,73.68
2022-12-20T05:47:22.479Z,67.03
2022-12-20T05:49:57.701Z,69.10
2022-12-20T05:52:26.121Z,64.18
2022-12-20T05:54:53.595Z,62.97
2022-12-20T05:57:24.575Z,67.70
2022-12-20T05:59:52.140Z,57.90
2022-12-20T06:02:24.458Z,56.58
2022-12-20T06:05:00.300Z,65.88
2022-12-20T06:07:31.969Z,58.20
2022-12-20T06:10:00.994Z,52.70
2022-12-20T06:12:50.477Z,58.00
2022-12-20T06:15:18.585Z,55.22
2022-12-20T06:17:46.338Z,54.17
2022-12-20T06:20:14.172Z,57.55
2022-12-20T06:22:45.357Z,53.55
2022-12-20T06:25:15.487Z,61.30
2022-12-20T06:27:43.310Z,59.70
2022-12-20T06:30:17.204Z,61.17
2022-12-20T06:32:59.170Z,61.30
2022-12-20T06:35:26.980Z,59.05
2022-12-20T06:37:57.234Z,58.20
2022-12-20T06:40:24.992Z,59.25
2022-12-20T06:42:52.656Z,65.38
2022-12-20T06:45:23.878Z,62.17
2022-12-20T06:47:53.221Z,59.92
2022-12-20T06:50:22.437Z,60.70
2022-12-20T06:52:50.064Z,64.20
2022-12-20T06:55:17.803Z,55.22
2022-12-20T06:57:46.307Z,62.40
2022-12-20T07:00:15.220Z,57.70
2022-12-20T07:02:42.934Z,60.22
2022-12-20T07:05:10.534Z,58.33
2022-12-20T07:07:44.543Z,68.32
2022-12-20T07:10:13.069Z,69.32
2022-12-20T07:12:47.468Z,58.75
2022-12-20T07:15:17.059Z,63.78
2022-12-20T07:17:45.006Z,63.75
2022-12-20T07:20:13.965Z,65.53
2022-12-20T07:22:42.007Z,64.15
2022-12-20T07:25:10.268Z,68.85
2022-12-20T07:27:37.845Z,66.45
2022-12-20T07:30:06.119Z,64.75
2022-12-20T07:32:33.657Z,69.10
2022-12-20T07:35:01.712Z,69.45
2022-12-20T07:37:30.487Z,59.45
2022-12-20T07:39:58.126Z,62.45
2022-12-20T07:42:33.671Z,63.03
2022-12-20T07:45:04.137Z,64.45
2022-12-20T07:47:31.676Z,62.97
2022-12-20T07:49:59.258Z,66.07
2022-12-20T07:52:29.297Z,56.30
2022-12-20T07:55:02.827Z,65.20
2022-12-20T07:57:36.000Z,65.70
2022-12-20T08:00:05.292Z,67.18
2022-12-20T08:02:44.753Z,69.38
2022-12-20T08:05:12.798Z,68.78
2022-12-20T08:07:42.750Z,68.68
2022-12-20T08:10:13.440Z,70.18
2022-12-20T08:12:42.119Z,68.03
2022-12-20T08:15:10.067Z,65.25
2022-12-20T08:17:37.747Z,64.22
2022-12-20T08:20:07.015Z,67.18
2022-12-20T08:22:35.554Z,64.25
2022-12-20T08:25:03.177Z,65.35
2022-12-20T08:27:30.857Z,64.55
2022-12-20T08:29:58.417Z,65.35
2022-12-20T08:32:26.357Z,68.07
2022-12-20T08:34:54.026Z,69.38
2022-12-20T08:37:21.763Z,65.80
2022-12-20T08:39:49.215Z,68.47
2022-12-20T08:42:16.789Z,71.35
2022-12-20T08:44:44.694Z,65.43
2022-12-20T08:47:12.361Z,71.93
2022-12-20T08:49:45.701Z,65.80
2022-12-20T08:52:15.515Z,63.83
2022-12-20T08:54:43.049Z,64.60
2022-12-20T08:57:10.819Z,69.32
2022-12-20T08:59:38.423Z,73.32
2022-12-20T09:02:06.979Z,69.38
2022-12-20T09:04:34.612Z,68.70
2022-12-20T09:07:02.267Z,66.20
2022-12-20T09:09:30.016Z,68.60
2022-12-20T09:11:57.655Z,67.32
2022-12-20T09:14:25.116Z,69.75
2022-12-20T09:16:52.818Z,63.67
2022-12-20T09:19:20.333Z,63.90
2022-12-20T09:21:47.953Z,63.35
2022-12-20T09:24:15.514Z,69.43
2022-12-20T09:26:43.264Z,68.60
2022-12-20T09:29:13.368Z,68.50
2022-12-20T09:31:41.544Z,67.03
2022-12-20T09:34:10.242Z,63.17
2022-12-20T09:36:38.447Z,62.75
2022-12-20T09:39:05.962Z,65.00
2022-12-20T09:41:38.348Z,67.32
2022-12-20T09:44:12.207Z,59.03
2022-12-20T09:46:41.224Z,65.05
2022-12-20T09:49:15.941Z,62.38
2022-12-20T09:52:07.766Z,60.75
2022-12-20T09:55:06.187Z,63.13
2022-12-20T09:57:52.316Z,65.35
2022-12-20T10:00:20.983Z,60.10
2022-12-20T10:03:15.577Z,60.25
2022-12-20T10:05:49.341Z,65.47
2022-12-20T10:08:39.928Z,59.80
2022-12-20T10:11:17.589Z,62.63
2022-12-20T10:13:59.108Z,65.70
2022-12-20T10:17:04.709Z,60.53
2022-12-20T10:19:44.201Z,63.63
2022-12-20T10:22:20.442Z,62.60
2022-12-20T10:25:18.688Z,61.63
2022-12-20T10:27:49.685Z,61.75
2022-12-20T10:30:21.305Z,65.57
2022-12-20T10:32:54.982Z,63.08
2022-12-20T10:38:12.769Z,64.55
2022-12-20T10:43:46.249Z,72.30
2022-12-20T10:46:17.093Z,70.77
2022-12-20T10:48:47.896Z,68.30
2022-12-20T10:51:18.938Z,62.15
2022-12-20T10:54:01.496Z,68.53
2022-12-20T10:56:31.191Z,62.38
2022-12-20T10:59:01.375Z,66.75
2022-12-20T11:01:33.706Z,63.15
2022-12-20T11:04:06.778Z,65.68
2022-12-20T11:06:37.413Z,60.47
2022-12-20T11:09:28.475Z,57.65
2022-12-20T11:12:13.431Z,60.03
2022-12-20T11:14:43.090Z,62.28
2022-12-20T11:17:14.298Z,59.50
2022-12-20T11:19:53.763Z,67.38
2022-12-20T11:22:48.644Z,71.10
2022-12-20T11:25:39.649Z,68.68
2022-12-20T11:28:23.668Z,67.43
2022-12-20T11:31:18.643Z,59.20
2022-12-20T11:34:14.453Z,73.47
2022-12-20T11:36:44.595Z,70.72
2022-12-20T11:39:39.015Z,66.38
2022-12-20T11:42:29.208Z,64.53
2022-12-20T11:45:13.835Z,71.20
2022-12-20T11:47:48.883Z,78.30
2022-12-20T11:50:40.114Z,88.43
2022-12-20T11:53:36.867Z,85.28
2022-12-20T11:56:14.203Z,85.65
2022-12-20T11:59:01.833Z,80.05
2022-12-20T12:01:41.147Z,80.38
2022-12-20T12:04:17.199Z,83.35
2022-12-20T12:06:50.082Z,87.15
2022-12-20T12:09:39.022Z,81.57
2022-12-20T12:12:17.980Z,84.45
2022-12-20T12:15:19.120Z,75.85
2022-12-20T12:17:52.626Z,80.53
2022-12-20T12:20:48.906Z,86.82
2022-12-20T12:23:19.441Z,80.55
2022-12-20T12:25:47.120Z,72.35
2022-12-20T12:28:15.570Z,75.20
2022-12-20T12:30:54.787Z,86.50
2022-12-20T12:33:38.102Z,73.65
2022-12-20T12:36:15.743Z,73.90
2022-12-20T12:38:45.922Z,70.45
2022-12-20T12:41:26.770Z,68.95
2022-12-20T12:43:57.936Z,69.63
2022-12-20T12:46:33.370Z,70.50
2022-12-20T12:49:11.099Z,70.65
2022-12-20T12:51:43.276Z,69.40
2022-12-20T12:54:29.473Z,74.10
2022-12-20T12:57:10.612Z,67.05
2022-12-20T12:59:38.705Z,71.65
2022-12-20T13:02:23.770Z,63.08
2022-12-20T13:05:01.994Z,69.45
2022-12-20T13:07:40.200Z,75.38
2022-12-20T13:10:10.442Z,83.55
2022-12-20T13:12:37.980Z,73.63
2022-12-20T13:15:20.848Z,76.28
2022-12-20T13:17:57.234Z,74.67
2022-12-20T13:20:26.602Z,73.07
2022-12-20T13:23:08.903Z,77.07
2022-12-20T13:25:47.813Z,76.40
2022-12-20T13:28:24.555Z,72.15
2022-12-20T13:31:01.365Z,78.28
2022-12-20T13:33:42.606Z,71.18
2022-12-20T13:36:10.114Z,72.78
2022-12-20T13:38:39.328Z,72.97
2022-12-20T13:41:26.899Z,72.30
2022-12-20T13:44:08.163Z,72.97
2022-12-20T13:46:53.981Z,69.53
2022-12-20T13:49:29.207Z,78.32
2022-12-20T13:52:25.473Z,73.32
2022-12-20T13:54:57.471Z,74.63
2022-12-20T13:57:32.740Z,79.38
2022-12-20T14:00:07.368Z,70.93
2022-12-20T14:02:42.135Z,71.65
2022-12-20T14:05:28.705Z,68.07
2022-12-20T14:08:01.008Z,68.50
2022-12-20T14:10:31.310Z,65.00
2022-12-20T14:12:59.221Z,69.22
2022-12-20T14:15:32.815Z,64.43
2022-12-20T14:21:05.772Z,64.95
2022-12-20T14:23:43.503Z,65.05
2022-12-20T14:26:17.091Z,73.15
2022-12-20T14:31:29.517Z,68.25
2022-12-20T14:34:12.014Z,71.18
2022-12-20T14:36:45.025Z,71.10
2022-12-20T14:39:32.725Z,72.07
2022-12-20T14:42:02.002Z,70.00
2022-12-20T14:44:31.458Z,67.45
2022-12-20T14:47:17.000Z,66.07
2022-12-20T14:49:52.594Z,66.78
2022-12-20T14:52:35.840Z,78.35
2022-12-20T14:55:21.950Z,72.10
2022-12-20T14:57:54.949Z,70.85
2022-12-20T15:00:27.725Z,68.68
2022-12-20T15:02:59.973Z,69.18
2022-12-20T15:05:34.044Z,73.95
2022-12-20T15:08:22.541Z,69.25
2022-12-20T15:11:10.468Z,73.32
2022-12-20T15:13:51.924Z,76.82
2022-12-20T15:16:27.141Z,69.53
2022-12-20T15:19:03.300Z,76.78
2022-12-20T15:21:35.822Z,74.93
2022-12-20T15:24:08.242Z,72.85
2022-12-20T15:26:37.002Z,71.53
2022-12-20T15:29:05.250Z,76.65
2022-12-20T15:31:37.087Z,77.97
2022-12-20T15:34:14.643Z,71.15
2022-12-20T15:36:42.402Z,68.82
2022-12-20T15:39:13.832Z,73.45
2022-12-20T15:41:46.503Z,71.93
2022-12-20T15:44:25.265Z,78.32
2022-12-20T15:46:53.635Z,70.18
2022-12-20T15:49:24.021Z,68.85
2022-12-20T15:51:53.713Z,73.60
2022-12-20T15:54:30.619Z,73.45
2022-12-20T15:57:03.385Z,72.72
2022-12-20T16:02:19.256Z,68.85
2022-12-20T16:04:46.847Z,63.22
2022-12-20T16:07:14.588Z,65.40
2022-12-20T16:09:42.186Z,73.25
2022-12-20T16:12:23.729Z,73.60
2022-12-20T16:14:52.012Z,68.88
2022-12-20T16:17:19.551Z,69.88
2022-12-20T16:19:48.618Z,70.53
2022-12-20T16:22:18.863Z,69.82
2022-12-20T16:24:46.790Z,71.00
2022-12-20T16:27:14.636Z,68.65
2022-12-20T16:29:42.247Z,66.22
2022-12-20T16:32:18.335Z,71.63
2022-12-20T16:34:46.153Z,62.65
2022-12-20T16:37:14.128Z,64.88
2022-12-20T16:39:42.500Z,65.97
2022-12-20T16:42:18.791Z,66.28
2022-12-20T16:44:48.184Z,63.90
2022-12-20T16:47:15.781Z,68.45
2022-12-20T16:49:51.843Z,67.88
2022-12-20T16:52:22.690Z,65.30
2022-12-20T16:54:50.939Z,68.10
2022-12-20T16:57:19.464Z,64.78
2022-12-20T16:59:47.104Z,65.90
2022-12-20T17:02:34.579Z,64.93
2022-12-20T17:05:02.737Z,66.20
2022-12-20T17:07:30.330Z,69.18
2022-12-20T17:10:11.261Z,67.72
2022-12-20T17:12:38.901Z,67.60
2022-12-20T17:15:08.273Z,63.53
2022-12-20T17:17:35.850Z,65.65
2022-12-20T17:20:03.524Z,60.05
2022-12-20T17:22:31.045Z,60.10
2022-12-20T17:24:58.602Z,65.10
2022-12-20T17:27:26.194Z,68.85
2022-12-20T17:29:53.861Z,70.57
2022-12-20T17:32:24.603Z,67.55
2022-12-20T17:34:53.763Z,71.68
2022-12-20T17:37:21.704Z,72.50
2022-12-20T17:39:49.597Z,69.13
2022-12-20T17:42:17.397Z,68.07
2022-12-20T17:44:46.456Z,65.70
2022-12-20T17:47:14.183Z,73.85
2022-12-20T17:49:41.791Z,77.72
2022-12-20T17:52:15.633Z,68.35
2022-12-20T17:54:43.636Z,70.53
2022-12-20T17:57:15.589Z,67.82
2022-12-20T17:59:43.780Z,67.65
2022-12-20T18:02:25.619Z,64.30
2022-12-20T18:04:53.531Z,68.15
2022-12-20T18:07:21.098Z,70.03
2022-12-20T18:09:49.211Z,73.32
2022-12-20T18:12:18.073Z,70.32
2022-12-20T18:14:48.467Z,69.53
2022-12-20T18:17:16.692Z,65.68
2022-12-20T18:19:44.166Z,69.55
2022-12-20T18:22:11.849Z,66.80
2022-12-20T18:24:39.262Z,66.43
2022-12-20T18:27:06.750Z,64.78
2022-12-20T18:29:34.231Z,67.93
2022-12-20T18:32:01.822Z,66.35
2022-12-20T18:34:29.433Z,66.90
2022-12-20T18:36:57.081Z,66.63
2022-12-20T18:39:24.745Z,60.92
2022-12-20T18:41:52.239Z,63.05
2022-12-20T18:44:19.685Z,63.50
2022-12-20T18:46:47.185Z,67.68
2022-12-20T18:49:14.951Z,57.78
2022-12-20T18:51:43.945Z,66.55
2022-12-20T18:54:13.538Z,59.72
2022-12-20T18:56:41.215Z,61.63
2022-12-20T18:59:11.935Z,59.50
2022-12-20T19:01:41.813Z,64.50
2022-12-20T19:04:10.107Z,62.38
2022-12-20T19:06:37.963Z,59.80
2022-12-20T19:09:09.350Z,65.47
2022-12-20T19:11:37.749Z,61.58
2022-12-20T19:14:05.625Z,65.50
2022-12-20T19:16:34.455Z,56.80
2022-12-20T19:19:03.096Z,67.38
2022-12-20T19:21:33.017Z,59.47
2022-12-20T19:24:05.244Z,61.15
2022-12-20T19:26:34.846Z,56.75
2022-12-20T19:29:03.389Z,60.72
2022-12-20T19:31:33.656Z,59.05
2022-12-20T19:34:05.163Z,55.97
2022-12-20T19:36:39.241Z,60.05
2022-12-20T19:39:12.539Z,52.53
2022-12-20T19:41:40.966Z,61.65
2022-12-20T19:44:09.467Z,54.67
2022-12-20T19:46:37.140Z,56.92
2022-12-20T19:49:04.816Z,59.13
2022-12-20T19:51:33.003Z,58.13
2022-12-20T19:54:00.736Z,58.00
2022-12-20T19:56:31.948Z,57.33
2022-12-20T19:59:00.062Z,61.00
2022-12-20T20:01:28.232Z,52.17
2022-12-20T20:03:58.827Z,53.80
2022-12-20T20:06:28.360Z,57.58
2022-12-20T20:08:59.867Z,60.83
2022-12-20T20:11:28.566Z,58.88
2022-12-20T20:13:56.580Z,61.92
2022-12-20T20:16:24.252Z,64.35
2022-12-20T20:18:52.372Z,59.60
2022-12-20T20:21:22.735Z,64.43
2022-12-20T20:23:54.416Z,65.15
2022-12-20T20:26:25.595Z,60.85
2022-12-20T20:28:53.354Z,66.00
2022-12-20T20:31:21.865Z,62.53
2022-12-20T20:33:50.637Z,58.90
2022-12-20T20:36:21.281Z,60.45
2022-12-20T20:38:50.087Z,60.30
2022-12-20T20:41:18.565Z,57.70
2022-12-20T20:43:46.208Z,61.78
2022-12-20T20:46:15.658Z,60.53
2022-12-20T20:48:44.705Z,65.93
2022-12-20T20:51:12.990Z,66.90
2022-12-20T20:53:40.953Z,66.18
2022-12-20T20:56:09.368Z,65.00
2022-12-20T20:58:37.414Z,59.63
2022-12-20T21:01:08.767Z,68.95
2022-12-20T21:03:37.063Z,64.57
2022-12-20T21:06:38.714Z,67.93
2022-12-20T21:08:55.311Z,63.90
2022-12-20T21:11:23.582Z,64.38
2022-12-20T21:13:51.288Z,65.60
2022-12-20T21:16:22.644Z,62.35
2022-12-20T21:18:54.901Z,65.50
2022-12-20T21:21:23.604Z,60.67
2022-12-20T21:23:51.819Z,60.92
2022-12-20T21:26:20.399Z,64.88
2022-12-20T21:28:48.446Z,62.53
2022-12-20T21:31:18.025Z,59.65
2022-12-20T21:33:48.850Z,59.22
2022-12-20T21:36:18.530Z,60.40
2022-12-20T21:38:50.733Z,59.53
2022-12-20T21:41:20.611Z,60.35
2022-12-20T21:43:48.316Z,57.33
2022-12-20T21:46:16.706Z,56.33
2022-12-20T21:48:44.896Z,61.15
2022-12-20T21:51:20.256Z,57.95
2022-12-20T21:53:53.075Z,64.63
2022-12-20T21:56:22.283Z,62.40
2022-12-20T21:58:50.966Z,60.35
2022-12-20T22:01:24.175Z,56.45
2022-12-20T22:04:10.865Z,57.40
2022-12-20T22:06:38.409Z,60.30
2022-12-20T22:09:10.321Z,65.65
2022-12-20T22:11:38.177Z,66.13
2022-12-20T22:14:06.403Z,61.72
2022-12-20T22:16:35.145Z,66.35
2022-12-20T22:19:03.714Z,66.22
2022-12-20T22:21:33.505Z,62.17
2022-12-20T22:24:02.379Z,66.00
2022-12-20T22:26:32.183Z,62.22
2022-12-20T22:29:02.911Z,63.47
2022-12-20T22:31:30.885Z,62.80
2022-12-20T22:33:59.553Z,58.47
2022-12-20T22:36:28.197Z,61.33
2022-12-20T22:38:56.837Z,60.90
2022-12-20T22:41:29.775Z,65.25
2022-12-20T22:43:58.903Z,44.70
2022-12-20T22:46:29.495Z,58.45
2022-12-20T22:48:58.956Z,61.08
2022-12-20T22:51:27.945Z,61.40
2022-12-20T22:54:00.620Z,58.47
2022-12-20T22:56:28.256Z,55.33
2022-12-20T22:58:56.178Z,60.45
2022-12-20T23:01:24.086Z,55.25
2022-12-20T23:03:51.763Z,58.55
2022-12-20T23:06:21.512Z,58.92
2022-12-20T23:08:49.641Z,58.22
2022-12-20T23:11:46.681Z,56.97
2022-12-20T23:14:36.422Z,61.72
2022-12-20T23:17:05.901Z,63.22
2022-12-20T23:19:52.908Z,67.75
2022-12-20T23:22:40.951Z,62.78
2022-12-20T23:25:19.753Z,59.70
2022-12-20T23:27:49.613Z,64.57
2022-12-20T23:30:20.282Z,63.83
2022-12-20T23:32:48.143Z,69.50
2022-12-20T23:35:18.226Z,65.97
2022-12-20T23:37:46.137Z,71.45
2022-12-20T23:40:15.039Z,60.80
2022-12-20T23:42:43.203Z,62.05
2022-12-20T23:45:11.455Z,72.72
2022-12-20T23:47:39.215Z,61.47
2022-12-20T23:50:07.203Z,62.50
2022-12-20T23:52:34.755Z,64.20
2022-12-20T23:55:02.353Z,62.70
2022-12-20T23:57:31.231Z,65.97
2022-12-20T23:59:58.860Z,59.55
